createdAt,value
2022-07-30T00:00:47.365Z,40.52
2022-07-30T00:01:47.368Z,40.62
2022-07-30T00:02:47.367Z,40.52
2022-07-30T00:03:47.457Z,40.52
2022-07-30T00:04:47.370Z,40.52
2022-07-30T00:05:47.368Z,40.62
2022-07-30T00:06:47.371Z,40.52
2022-07-30T00:07:47.371Z,40.62
2022-07-30T00:08:47.370Z,40.62
2022-07-30T00:09:47.372Z,40.52
2022-07-30T00:10:47.372Z,40.52
2022-07-30T00:11:47.374Z,40.62
2022-07-30T00:12:47.373Z,40.52
2022-07-30T00:13:47.374Z,40.42
2022-07-30T00:14:47.376Z,40.81
2022-07-30T00:15:47.380Z,40.52
2022-07-30T00:16:47.435Z,41.20
2022-07-30T00:17:49.350Z,40.81
2022-07-30T00:18:47.379Z,40.62
2022-07-30T00:19:47.383Z,40.72
2022-07-30T00:20:47.381Z,40.62
2022-07-30T00:21:47.379Z,40.62
2022-07-30T00:22:47.383Z,40.52
2022-07-30T00:24:01.641Z,40.62
2022-07-30T00:24:47.397Z,40.42
2022-07-30T00:25:47.385Z,40.52
2022-07-30T00:26:47.385Z,40.62
2022-07-30T00:27:47.386Z,40.62
2022-07-30T00:28:47.384Z,40.52
2022-07-30T00:29:47.386Z,40.52
2022-07-30T00:30:47.441Z,40.52
2022-07-30T00:31:47.390Z,40.42
2022-07-30T00:32:47.388Z,40.13
2022-07-30T00:33:47.390Z,40.52
2022-07-30T00:34:47.390Z,40.13
2022-07-30T00:35:47.392Z,40.33
2022-07-30T00:36:47.391Z,40.13
2022-07-30T00:37:47.392Z,40.23
2022-07-30T00:38:47.398Z,40.52
2022-07-30T00:39:47.397Z,40.42
2022-07-30T00:40:47.420Z,40.13
2022-07-30T00:41:47.396Z,40.33
2022-07-30T00:42:47.399Z,40.33
2022-07-30T00:43:47.397Z,40.42
2022-07-30T00:44:47.399Z,40.23
2022-07-30T00:45:47.460Z,40.33
2022-07-30T00:46:47.402Z,40.33
2022-07-30T00:47:47.402Z,40.52
2022-07-30T00:48:47.455Z,40.42
2022-07-30T00:49:47.404Z,40.33
2022-07-30T00:50:47.406Z,40.33
2022-07-30T00:51:47.404Z,40.33
2022-07-30T00:52:47.410Z,40.33
2022-07-30T00:53:47.404Z,40.42
2022-07-30T00:54:47.405Z,40.33
2022-07-30T00:55:47.407Z,40.42
2022-07-30T00:56:47.406Z,40.42
2022-07-30T00:57:47.409Z,40.42
2022-07-30T00:58:47.407Z,40.52
2022-07-30T00:59:47.411Z,40.33
2022-07-30T01:00:47.468Z,40.52
2022-07-30T01:01:47.553Z,40.33
2022-07-30T01:02:47.411Z,40.52
2022-07-30T01:03:47.413Z,40.33
2022-07-30T01:04:47.413Z,40.62
2022-07-30T01:05:47.414Z,40.42
2022-07-30T01:06:47.415Z,40.33
2022-07-30T01:07:47.418Z,40.42
2022-07-30T01:08:47.415Z,40.03
2022-07-30T01:09:48.493Z,40.33
2022-07-30T01:10:47.417Z,40.03
2022-07-30T01:11:47.422Z,40.72
2022-07-30T01:12:47.418Z,40.03
2022-07-30T01:13:47.420Z,40.13
2022-07-30T01:14:47.421Z,40.03
2022-07-30T01:15:47.421Z,40.13
2022-07-30T01:16:47.491Z,40.03
2022-07-30T01:17:50.752Z,39.94
2022-07-30T01:18:47.422Z,40.13
2022-07-30T01:19:47.424Z,40.42
2022-07-30T01:20:47.423Z,39.94
2022-07-30T01:21:47.426Z,39.75
2022-07-30T01:22:47.426Z,39.84
2022-07-30T01:23:47.433Z,39.94
2022-07-30T01:24:47.425Z,39.65
2022-07-30T01:25:47.430Z,39.94
2022-07-30T01:26:47.429Z,39.94
2022-07-30T01:27:47.431Z,40.23
2022-07-30T01:28:47.430Z,40.13
2022-07-30T01:29:47.434Z,40.13
2022-07-30T01:30:47.432Z,40.33
2022-07-30T01:31:47.469Z,40.23
2022-07-30T01:32:47.432Z,40.13
2022-07-30T01:33:47.441Z,40.13
2022-07-30T01:34:47.437Z,40.03
2022-07-30T01:35:47.440Z,40.13
2022-07-30T01:36:47.437Z,40.13
2022-07-30T01:37:47.438Z,40.03
2022-07-30T01:38:47.436Z,39.94
2022-07-30T01:39:47.440Z,40.03
2022-07-30T01:40:47.439Z,40.03
2022-07-30T01:41:47.439Z,40.03
2022-07-30T01:42:47.440Z,40.03
2022-07-30T01:43:47.474Z,40.33
2022-07-30T01:44:47.441Z,40.03
2022-07-30T01:45:47.478Z,39.45
2022-07-30T01:46:47.447Z,39.75
2022-07-30T01:47:47.446Z,39.65
2022-07-30T01:48:47.523Z,39.55
2022-07-30T01:49:47.446Z,39.75
2022-07-30T01:50:47.446Z,39.84
2022-07-30T01:51:47.447Z,39.75
2022-07-30T01:52:47.448Z,39.75
2022-07-30T01:53:47.449Z,39.94
2022-07-30T01:54:47.450Z,39.84
2022-07-30T01:55:47.454Z,39.75
2022-07-30T01:56:47.450Z,39.75
2022-07-30T01:57:47.451Z,39.84
2022-07-30T01:58:47.453Z,39.45
2022-07-30T01:59:47.457Z,39.84
2022-07-30T02:00:47.531Z,39.84
2022-07-30T02:01:47.454Z,39.75
2022-07-30T02:02:47.455Z,39.75
2022-07-30T02:03:47.546Z,39.75
2022-07-30T02:04:47.457Z,39.65
2022-07-30T02:05:47.459Z,39.75
2022-07-30T02:06:47.459Z,39.75
2022-07-30T02:07:47.459Z,39.84
2022-07-30T02:08:47.459Z,39.84
2022-07-30T02:09:47.462Z,39.65
2022-07-30T02:10:47.461Z,39.84
2022-07-30T02:11:47.463Z,39.65
2022-07-30T02:12:47.462Z,39.26
2022-07-30T02:13:47.466Z,39.45
2022-07-30T02:14:47.463Z,39.45
2022-07-30T02:15:47.466Z,39.55
2022-07-30T02:16:47.859Z,39.45
2022-07-30T02:17:47.466Z,39.36
2022-07-30T02:18:47.465Z,39.36
2022-07-30T02:19:47.468Z,39.36
2022-07-30T02:20:49.408Z,39.16
2022-07-30T02:21:50.840Z,39.26
2022-07-30T02:22:47.473Z,39.26
2022-07-30T02:23:47.472Z,39.45
2022-07-30T02:24:47.471Z,39.26
2022-07-30T02:25:47.473Z,39.16
2022-07-30T02:26:47.474Z,39.16
2022-07-30T02:27:47.475Z,39.16
2022-07-30T02:28:47.473Z,39.06
2022-07-30T02:29:47.477Z,39.26
2022-07-30T02:30:47.477Z,39.16
2022-07-30T02:31:47.523Z,39.16
2022-07-30T02:32:47.476Z,39.16
2022-07-30T02:33:48.664Z,39.16
2022-07-30T02:34:47.481Z,38.96
2022-07-30T02:35:47.481Z,39.16
2022-07-30T02:36:47.480Z,39.06
2022-07-30T02:37:47.481Z,39.26
2022-07-30T02:38:47.496Z,39.06
2022-07-30T02:39:47.483Z,38.96
2022-07-30T02:40:47.482Z,39.16
2022-07-30T02:41:49.860Z,39.06
2022-07-30T02:42:47.484Z,38.87
2022-07-30T02:43:47.489Z,39.16
2022-07-30T02:44:47.485Z,39.06
2022-07-30T02:45:47.487Z,39.06
2022-07-30T02:46:47.578Z,38.96
2022-07-30T02:47:47.490Z,39.06
2022-07-30T02:48:47.523Z,39.06
2022-07-30T02:49:47.492Z,39.06
2022-07-30T02:50:47.490Z,39.16
2022-07-30T02:51:47.493Z,38.96
2022-07-30T02:52:47.492Z,39.06
2022-07-30T02:53:47.493Z,38.87
2022-07-30T02:54:47.492Z,39.06
2022-07-30T02:55:47.495Z,38.96
2022-07-30T02:56:47.494Z,39.06
2022-07-30T02:57:47.496Z,38.96
2022-07-30T02:58:47.495Z,38.96
2022-07-30T02:59:47.498Z,39.06
2022-07-30T03:00:47.592Z,38.87
2022-07-30T03:01:47.609Z,38.87
2022-07-30T03:02:47.499Z,38.96
2022-07-30T03:03:47.500Z,39.16
2022-07-30T03:04:49.157Z,39.06
2022-07-30T03:05:47.502Z,39.26
2022-07-30T03:06:47.501Z,39.26
2022-07-30T03:07:47.503Z,39.06
2022-07-30T03:08:47.502Z,39.26
2022-07-30T03:09:50.877Z,39.16
2022-07-30T03:10:47.504Z,39.26
2022-07-30T03:11:47.505Z,39.16
2022-07-30T03:12:47.506Z,39.26
2022-07-30T03:13:47.507Z,38.96
2022-07-30T03:14:47.508Z,39.06
2022-07-30T03:15:47.521Z,38.96
2022-07-30T03:16:47.509Z,39.06
2022-07-30T03:17:47.511Z,39.26
2022-07-30T03:18:47.509Z,39.16
2022-07-30T03:19:47.513Z,39.06
2022-07-30T03:20:47.513Z,39.16
2022-07-30T03:21:47.516Z,39.06
2022-07-30T03:22:47.515Z,39.26
2022-07-30T03:23:47.514Z,39.26
2022-07-30T03:24:47.513Z,39.36
2022-07-30T03:25:47.516Z,39.36
2022-07-30T03:26:47.516Z,39.36
2022-07-30T03:27:47.518Z,39.26
2022-07-30T03:28:47.517Z,39.26
2022-07-30T03:29:47.519Z,38.77
2022-07-30T03:30:47.518Z,38.67
2022-07-30T03:31:47.678Z,38.87
2022-07-30T03:32:47.523Z,38.77
2022-07-30T03:33:47.521Z,38.48
2022-07-30T03:34:47.523Z,38.57
2022-07-30T03:35:47.525Z,38.87
2022-07-30T03:36:47.522Z,38.77
2022-07-30T03:37:47.523Z,38.77
2022-07-30T03:38:47.525Z,38.77
2022-07-30T03:39:47.527Z,38.77
2022-07-30T03:40:47.524Z,38.87
2022-07-30T03:41:47.527Z,38.57
2022-07-30T03:42:47.527Z,38.87
2022-07-30T03:43:47.528Z,38.77
2022-07-30T03:44:47.528Z,38.57
2022-07-30T03:45:47.531Z,38.77
2022-07-30T03:46:47.544Z,38.77
2022-07-30T03:47:47.531Z,38.87
2022-07-30T03:48:47.612Z,38.77
2022-07-30T03:49:47.532Z,38.87
2022-07-30T03:50:47.534Z,38.77
2022-07-30T03:51:47.684Z,38.48
2022-07-30T03:52:47.534Z,38.77
2022-07-30T03:53:47.536Z,38.77
2022-07-30T03:54:47.538Z,38.67
2022-07-30T03:55:47.537Z,38.77
2022-07-30T03:56:47.547Z,38.67
2022-07-30T03:57:47.541Z,38.57
2022-07-30T03:58:47.539Z,38.57
2022-07-30T03:59:47.541Z,38.67
2022-07-30T04:00:47.540Z,38.67
2022-07-30T04:01:47.644Z,38.57
2022-07-30T04:02:47.541Z,38.57
2022-07-30T04:03:47.595Z,38.67
2022-07-30T04:04:47.541Z,38.57
2022-07-30T04:05:47.545Z,38.77
2022-07-30T04:06:47.822Z,38.67
2022-07-30T04:07:47.546Z,38.57
2022-07-30T04:08:47.545Z,38.67
2022-07-30T04:09:47.549Z,38.77
2022-07-30T04:10:47.546Z,38.57
2022-07-30T04:11:47.550Z,38.57
2022-07-30T04:12:47.547Z,38.57
2022-07-30T04:13:47.549Z,38.77
2022-07-30T04:14:47.550Z,38.67
2022-07-30T04:16:38.236Z,38.48
2022-07-30T04:16:47.635Z,38.87
2022-07-30T04:17:47.553Z,38.67
2022-07-30T04:18:47.553Z,38.77
2022-07-30T04:19:47.558Z,38.57
2022-07-30T04:20:47.555Z,38.77
2022-07-30T04:21:47.558Z,38.67
2022-07-30T04:22:47.555Z,38.48
2022-07-30T04:24:04.514Z,38.77
2022-07-30T04:24:47.556Z,38.48
2022-07-30T04:25:47.558Z,38.57
2022-07-30T04:26:47.559Z,38.57
2022-07-30T04:28:03.186Z,38.67
2022-07-30T04:28:47.569Z,38.67
2022-07-30T04:29:47.561Z,38.48
2022-07-30T04:30:47.561Z,38.57
2022-07-30T04:31:47.683Z,38.19
2022-07-30T04:32:47.561Z,38.67
2022-07-30T04:33:47.563Z,38.67
2022-07-30T04:34:47.565Z,38.39
2022-07-30T04:35:50.577Z,38.67
2022-07-30T04:36:47.566Z,38.57
2022-07-30T04:37:47.568Z,38.48
2022-07-30T04:38:47.568Z,38.87
2022-07-30T04:39:47.569Z,38.67
2022-07-30T04:40:47.570Z,38.19
2022-07-30T04:41:48.919Z,38.67
2022-07-30T04:42:47.570Z,38.67
2022-07-30T04:43:47.570Z,38.19
2022-07-30T04:44:47.571Z,38.67
2022-07-30T04:45:47.571Z,38.48
2022-07-30T04:46:47.731Z,38.48
2022-07-30T04:47:47.572Z,38.48
2022-07-30T04:48:48.087Z,38.39
2022-07-30T04:49:47.574Z,38.48
2022-07-30T04:50:47.576Z,38.67
2022-07-30T04:51:47.726Z,38.87
2022-07-30T04:52:47.576Z,38.48
2022-07-30T04:53:47.579Z,38.39
2022-07-30T04:54:47.579Z,38.57
2022-07-30T04:55:47.582Z,38.48
2022-07-30T04:56:53.666Z,38.48
2022-07-30T04:57:47.582Z,38.48
2022-07-30T04:58:47.581Z,38.39
2022-07-30T04:59:47.582Z,38.29
2022-07-30T05:00:47.584Z,38.48
2022-07-30T05:01:47.635Z,38.48
2022-07-30T05:02:47.586Z,38.48
2022-07-30T05:03:47.586Z,38.39
2022-07-30T05:04:47.655Z,38.67
2022-07-30T05:05:47.585Z,38.67
2022-07-30T05:06:47.587Z,38.48
2022-07-30T05:07:47.587Z,38.48
2022-07-30T05:08:47.588Z,38.48
2022-07-30T05:09:47.589Z,38.39
2022-07-30T05:10:47.591Z,38.39
2022-07-30T05:11:47.591Z,38.48
2022-07-30T05:12:47.595Z,38.48
2022-07-30T05:13:47.594Z,38.48
2022-07-30T05:14:48.383Z,38.48
2022-07-30T05:15:47.632Z,38.48
2022-07-30T05:16:47.595Z,38.39
2022-07-30T05:17:47.599Z,38.48
2022-07-30T05:18:47.595Z,38.67
2022-07-30T05:19:47.596Z,38.48
2022-07-30T05:20:47.598Z,38.57
2022-07-30T05:21:47.598Z,38.57
2022-07-30T05:22:51.009Z,38.48
2022-07-30T05:23:50.473Z,38.48
2022-07-30T05:24:47.600Z,38.39
2022-07-30T05:25:47.600Z,38.48
2022-07-30T05:26:47.602Z,38.48
2022-07-30T05:27:47.601Z,38.57
2022-07-30T05:28:52.071Z,38.48
2022-07-30T05:29:47.603Z,38.48
2022-07-30T05:30:47.630Z,38.48
2022-07-30T05:31:47.613Z,38.57
2022-07-30T05:32:47.606Z,38.48
2022-07-30T05:33:47.605Z,38.57
2022-07-30T05:34:49.865Z,38.48
2022-07-30T05:35:47.608Z,38.57
2022-07-30T05:36:47.608Z,38.39
2022-07-30T05:37:47.608Z,38.67
2022-07-30T05:38:47.611Z,38.39
2022-07-30T05:40:02.385Z,38.57
2022-07-30T05:40:47.612Z,38.57
2022-07-30T05:41:47.611Z,38.39
2022-07-30T05:42:47.613Z,38.67
2022-07-30T05:43:47.612Z,38.48
2022-07-30T05:44:47.615Z,38.48
2022-07-30T05:45:47.614Z,38.48
2022-07-30T05:46:47.619Z,38.39
2022-07-30T05:47:47.616Z,38.57
2022-07-30T05:48:47.649Z,38.77
2022-07-30T05:49:47.616Z,38.29
2022-07-30T05:50:47.618Z,38.87
2022-07-30T05:51:47.868Z,38.48
2022-07-30T05:52:47.622Z,38.48
2022-07-30T05:53:47.620Z,38.67
2022-07-30T05:54:47.621Z,38.39
2022-07-30T05:55:47.621Z,38.67
2022-07-30T05:56:47.622Z,38.96
2022-07-30T05:57:47.622Z,38.48
2022-07-30T05:58:47.627Z,38.57
2022-07-30T05:59:47.624Z,38.48
2022-07-30T06:00:47.626Z,38.67
2022-07-30T06:01:47.666Z,38.57
2022-07-30T06:02:47.633Z,38.67
2022-07-30T06:03:47.627Z,38.67
2022-07-30T06:04:47.708Z,38.87
2022-07-30T06:05:47.628Z,38.77
2022-07-30T06:06:47.632Z,38.48
2022-07-30T06:07:47.630Z,38.87
2022-07-30T06:08:47.632Z,38.67
2022-07-30T06:09:47.631Z,38.39
2022-07-30T06:10:47.636Z,38.96
2022-07-30T06:11:47.634Z,38.39
2022-07-30T06:12:47.633Z,38.39
2022-07-30T06:13:47.636Z,38.19
2022-07-30T06:14:47.636Z,38.77
2022-07-30T06:15:47.690Z,38.57
2022-07-30T06:16:47.638Z,38.48
2022-07-30T06:17:51.112Z,38.67
2022-07-30T06:18:47.641Z,38.67
2022-07-30T06:19:47.638Z,38.57
2022-07-30T06:20:47.640Z,38.48
2022-07-30T06:22:01.487Z,38.48
2022-07-30T06:22:47.641Z,38.57
2022-07-30T06:23:47.642Z,38.77
2022-07-30T06:24:47.645Z,38.57
2022-07-30T06:25:47.643Z,38.39
2022-07-30T06:26:47.645Z,38.57
2022-07-30T06:27:47.644Z,38.67
2022-07-30T06:28:47.645Z,38.67
2022-07-30T06:29:47.645Z,38.39
2022-07-30T06:30:47.708Z,38.57
2022-07-30T06:31:47.648Z,38.67
2022-07-30T06:32:48.812Z,38.67
2022-07-30T06:33:47.651Z,38.57
2022-07-30T06:34:47.651Z,38.67
2022-07-30T06:35:47.654Z,38.57
2022-07-30T06:36:47.651Z,38.67
2022-07-30T06:38:05.929Z,38.67
2022-07-30T06:38:47.654Z,38.57
2022-07-30T06:39:56.887Z,38.57
2022-07-30T06:40:47.655Z,38.57
2022-07-30T06:41:47.656Z,38.67
2022-07-30T06:42:47.656Z,38.77
2022-07-30T06:43:47.657Z,38.77
2022-07-30T06:44:47.660Z,38.57
2022-07-30T06:45:47.658Z,38.77
2022-07-30T06:46:47.660Z,38.77
2022-07-30T06:47:47.660Z,38.77
2022-07-30T06:48:47.702Z,38.87
2022-07-30T06:49:47.662Z,38.77
2022-07-30T06:50:47.664Z,38.77
2022-07-30T06:51:47.818Z,39.06
2022-07-30T06:52:47.664Z,38.67
2022-07-30T06:53:47.663Z,38.87
2022-07-30T06:54:47.665Z,38.57
2022-07-30T06:55:47.666Z,38.67
2022-07-30T06:56:47.666Z,38.67
2022-07-30T06:57:47.667Z,38.77
2022-07-30T06:58:47.669Z,38.87
2022-07-30T06:59:56.717Z,38.57
2022-07-30T07:00:47.670Z,38.67
2022-07-30T07:01:47.719Z,38.67
2022-07-30T07:02:47.672Z,38.77
2022-07-30T07:03:47.671Z,38.57
2022-07-30T07:04:47.778Z,38.67
2022-07-30T07:05:47.676Z,38.57
2022-07-30T07:06:47.677Z,38.77
2022-07-30T07:07:58.347Z,38.87
2022-07-30T07:08:47.675Z,38.77
2022-07-30T07:09:47.674Z,38.87
2022-07-30T07:10:47.679Z,38.67
2022-07-30T07:11:47.678Z,38.57
2022-07-30T07:12:47.679Z,38.67
2022-07-30T07:13:47.678Z,38.77
2022-07-30T07:14:47.683Z,38.87
2022-07-30T07:15:47.681Z,38.77
2022-07-30T07:16:49.147Z,38.77
2022-07-30T07:17:47.681Z,38.67
2022-07-30T07:18:47.683Z,38.77
2022-07-30T07:19:59.420Z,38.77
2022-07-30T07:20:47.684Z,38.87
2022-07-30T07:21:47.689Z,38.77
2022-07-30T07:22:47.687Z,38.67
2022-07-30T07:23:47.685Z,38.77
2022-07-30T07:24:47.686Z,38.67
2022-07-30T07:25:47.687Z,38.87
2022-07-30T07:26:47.688Z,39.06
2022-07-30T07:28:10.861Z,38.96
2022-07-30T07:28:47.690Z,38.77
2022-07-30T07:30:01.650Z,38.77
2022-07-30T07:30:47.759Z,38.77
2022-07-30T07:32:06.919Z,38.77
2022-07-30T07:32:47.693Z,38.87
2022-07-30T07:33:47.692Z,38.67
2022-07-30T07:34:47.695Z,38.48
2022-07-30T07:35:49.875Z,38.77
2022-07-30T07:36:47.699Z,38.96
2022-07-30T07:37:47.695Z,38.77
2022-07-30T07:38:47.698Z,38.48
2022-07-30T07:39:47.697Z,38.87
2022-07-30T07:40:47.700Z,38.87
2022-07-30T07:41:48.802Z,38.77
2022-07-30T07:42:47.699Z,38.77
2022-07-30T07:43:47.701Z,38.57
2022-07-30T07:44:47.715Z,38.77
2022-07-30T07:45:47.765Z,38.77
2022-07-30T07:46:47.781Z,38.77
2022-07-30T07:47:52.009Z,38.87
2022-07-30T07:48:47.763Z,38.77
2022-07-30T07:49:47.705Z,38.77
2022-07-30T07:50:47.706Z,38.67
2022-07-30T07:51:48.796Z,38.67
2022-07-30T07:52:47.708Z,38.77
2022-07-30T07:54:00.458Z,38.77
2022-07-30T07:54:47.741Z,38.87
2022-07-30T07:55:47.709Z,38.67
2022-07-30T07:56:47.709Z,38.87
2022-07-30T07:57:47.710Z,38.87
2022-07-30T07:58:47.712Z,38.77
2022-07-30T07:59:47.711Z,38.67
2022-07-30T08:00:47.963Z,38.77
2022-07-30T08:01:47.712Z,38.67
2022-07-30T08:02:47.778Z,38.77
2022-07-30T08:03:47.713Z,38.67
2022-07-30T08:04:47.717Z,38.77
2022-07-30T08:05:56.875Z,38.67
2022-07-30T08:06:47.718Z,38.67
2022-07-30T08:07:47.718Z,38.77
2022-07-30T08:08:47.717Z,38.77
2022-07-30T08:09:47.719Z,38.57
2022-07-30T08:10:47.720Z,38.67
2022-07-30T08:11:47.721Z,38.77
2022-07-30T08:12:47.720Z,38.77
2022-07-30T08:13:52.349Z,38.57
2022-07-30T08:14:47.724Z,38.77
2022-07-30T08:15:47.723Z,38.87
2022-07-30T08:16:47.826Z,38.77
2022-07-30T08:17:47.725Z,38.77
2022-07-30T08:18:47.725Z,38.67
2022-07-30T08:19:47.729Z,38.57
2022-07-30T08:20:47.730Z,38.57
2022-07-30T08:21:47.728Z,38.67
2022-07-30T08:22:47.730Z,38.48
2022-07-30T08:23:47.728Z,38.67
2022-07-30T08:24:47.731Z,38.77
2022-07-30T08:25:47.730Z,39.06
2022-07-30T08:26:47.732Z,38.87
2022-07-30T08:27:47.732Z,38.67
2022-07-30T08:28:47.732Z,38.57
2022-07-30T08:29:47.732Z,38.67
2022-07-30T08:30:47.736Z,38.67
2022-07-30T08:31:47.736Z,38.67
2022-07-30T08:32:47.739Z,38.96
2022-07-30T08:33:47.735Z,38.67
2022-07-30T08:34:47.737Z,38.77
2022-07-30T08:35:48.542Z,38.67
2022-07-30T08:36:47.739Z,38.87
2022-07-30T08:37:47.737Z,38.57
2022-07-30T08:38:47.741Z,38.67
2022-07-30T08:39:47.742Z,38.67
2022-07-30T08:40:47.806Z,38.67
2022-07-30T08:41:47.741Z,38.87
2022-07-30T08:42:47.749Z,38.48
2022-07-30T08:43:47.744Z,38.48
2022-07-30T08:44:47.744Z,38.77
2022-07-30T08:45:47.745Z,38.57
2022-07-30T08:46:47.927Z,38.67
2022-07-30T08:47:47.748Z,38.57
2022-07-30T08:48:47.746Z,38.67
2022-07-30T08:49:47.748Z,38.87
2022-07-30T08:50:47.749Z,38.67
2022-07-30T08:51:47.750Z,38.77
2022-07-30T08:52:47.749Z,38.48
2022-07-30T08:53:47.750Z,38.57
2022-07-30T08:54:47.771Z,38.77
2022-07-30T08:55:47.757Z,38.67
2022-07-30T08:56:47.751Z,38.87
2022-07-30T08:57:47.755Z,38.48
2022-07-30T08:58:47.753Z,38.67
2022-07-30T09:00:00.248Z,38.77
2022-07-30T09:00:47.806Z,38.48
2022-07-30T09:01:47.758Z,38.57
2022-07-30T09:02:47.757Z,38.39
2022-07-30T09:03:47.758Z,38.57
2022-07-30T09:04:47.759Z,38.39
2022-07-30T09:05:47.762Z,38.48
2022-07-30T09:06:47.760Z,38.48
2022-07-30T09:07:47.761Z,38.48
2022-07-30T09:08:47.763Z,38.39
2022-07-30T09:09:47.764Z,38.67
2022-07-30T09:10:52.945Z,38.57
2022-07-30T09:11:47.764Z,38.48
2022-07-30T09:12:47.762Z,38.57
2022-07-30T09:13:47.766Z,38.39
2022-07-30T09:14:47.766Z,38.29
2022-07-30T09:15:47.768Z,38.19
2022-07-30T09:16:47.767Z,38.09
2022-07-30T09:17:47.768Z,38.29
2022-07-30T09:18:47.767Z,38.19
2022-07-30T09:19:47.770Z,38.19
2022-07-30T09:20:47.769Z,38.29
2022-07-30T09:21:47.770Z,37.99
2022-07-30T09:22:47.772Z,38.29
2022-07-30T09:23:51.110Z,38.19
2022-07-30T09:24:47.777Z,38.39
2022-07-30T09:25:48.056Z,38.39
2022-07-30T09:26:47.773Z,38.29
2022-07-30T09:27:47.783Z,38.19
2022-07-30T09:28:47.774Z,38.39
2022-07-30T09:29:47.778Z,38.48
2022-07-30T09:30:47.777Z,38.57
2022-07-30T09:31:47.779Z,37.90
2022-07-30T09:32:47.778Z,37.80
2022-07-30T09:33:47.790Z,37.99
2022-07-30T09:34:47.779Z,37.99
2022-07-30T09:35:47.782Z,37.80
2022-07-30T09:36:47.781Z,37.99
2022-07-30T09:37:47.797Z,37.90
2022-07-30T09:38:47.822Z,38.19
2022-07-30T09:39:58.908Z,38.09
2022-07-30T09:40:47.784Z,38.09
2022-07-30T09:41:47.787Z,38.09
2022-07-30T09:42:47.785Z,38.29
2022-07-30T09:43:47.788Z,38.09
2022-07-30T09:44:47.787Z,38.09
2022-07-30T09:45:57.148Z,38.19
2022-07-30T09:46:48.190Z,38.09
2022-07-30T09:47:47.791Z,37.99
2022-07-30T09:48:47.827Z,37.99
2022-07-30T09:49:47.792Z,37.70
2022-07-30T09:50:50.086Z,37.99
2022-07-30T09:51:54.172Z,37.80
2022-07-30T09:52:49.016Z,37.90
2022-07-30T09:53:47.793Z,37.90
2022-07-30T09:54:50.985Z,37.70
2022-07-30T09:55:47.797Z,37.70
2022-07-30T09:56:54.106Z,37.70
2022-07-30T09:57:49.845Z,37.70
2022-07-30T09:58:47.796Z,37.60
2022-07-30T09:59:47.798Z,37.70
2022-07-30T10:00:47.841Z,37.60
2022-07-30T10:01:51.038Z,37.41
2022-07-30T10:02:47.861Z,37.51
2022-07-30T10:03:47.933Z,37.32
2022-07-30T10:04:47.802Z,37.60
2022-07-30T10:05:47.802Z,37.70
2022-07-30T10:06:47.801Z,37.51
2022-07-30T10:07:47.803Z,37.60
2022-07-30T10:08:48.148Z,37.22
2022-07-30T10:09:47.806Z,37.60
2022-07-30T10:10:50.879Z,37.70
2022-07-30T10:11:47.807Z,37.70
2022-07-30T10:12:47.806Z,37.41
2022-07-30T10:13:47.807Z,37.32
2022-07-30T10:14:47.810Z,37.51
2022-07-30T10:15:47.809Z,37.60
2022-07-30T10:16:47.807Z,37.60
2022-07-30T10:17:47.850Z,37.51
2022-07-30T10:18:47.810Z,37.12
2022-07-30T10:19:47.812Z,37.41
2022-07-30T10:20:47.812Z,37.12
2022-07-30T10:21:47.813Z,37.22
2022-07-30T10:22:48.103Z,37.12
2022-07-30T10:23:50.655Z,37.12
2022-07-30T10:24:47.813Z,37.12
2022-07-30T10:25:54.915Z,37.12
2022-07-30T10:26:47.814Z,37.32
2022-07-30T10:27:47.818Z,37.32
2022-07-30T10:28:47.817Z,37.41
2022-07-30T10:29:47.820Z,36.93
2022-07-30T10:30:47.818Z,37.02
2022-07-30T10:31:54.376Z,37.02
2022-07-30T10:32:47.819Z,37.02
2022-07-30T10:33:47.820Z,36.83
2022-07-30T10:34:47.825Z,36.73
2022-07-30T10:35:47.822Z,36.63
2022-07-30T10:36:47.822Z,36.83
2022-07-30T10:37:47.825Z,36.73
2022-07-30T10:38:52.480Z,36.73
2022-07-30T10:39:47.827Z,36.54
2022-07-30T10:40:47.824Z,36.93
2022-07-30T10:41:48.542Z,36.93
2022-07-30T10:42:47.826Z,36.63
2022-07-30T10:43:47.829Z,36.54
2022-07-30T10:44:47.828Z,36.54
2022-07-30T10:45:47.830Z,36.24
2022-07-30T10:46:47.837Z,36.34
2022-07-30T10:47:49.347Z,36.83
2022-07-30T10:48:47.866Z,37.02
2022-07-30T10:49:47.865Z,36.44
2022-07-30T10:50:47.833Z,36.83
2022-07-30T10:51:47.835Z,36.83
2022-07-30T10:52:47.834Z,36.73
2022-07-30T10:53:47.836Z,36.15
2022-07-30T10:54:47.836Z,36.54
2022-07-30T10:55:47.838Z,36.24
2022-07-30T10:56:47.836Z,36.34
2022-07-30T10:57:47.839Z,36.63
2022-07-30T10:58:48.863Z,36.44
2022-07-30T10:59:47.843Z,36.44
2022-07-30T11:00:47.843Z,36.54
2022-07-30T11:01:51.734Z,36.34
2022-07-30T11:02:47.844Z,36.54
2022-07-30T11:03:47.843Z,36.73
2022-07-30T11:04:47.841Z,36.73
2022-07-30T11:05:47.849Z,36.44
2022-07-30T11:06:47.844Z,36.63
2022-07-30T11:07:47.845Z,36.63
2022-07-30T11:08:48.272Z,36.44
2022-07-30T11:10:00.035Z,36.24
2022-07-30T11:10:47.870Z,36.24
2022-07-30T11:12:02.037Z,36.24
2022-07-30T11:12:52.834Z,36.05
2022-07-30T11:13:47.850Z,36.15
2022-07-30T11:14:47.850Z,36.15
2022-07-30T11:15:48.404Z,36.24
2022-07-30T11:16:47.854Z,36.24
2022-07-30T11:17:47.852Z,36.15
2022-07-30T11:18:49.193Z,36.24
2022-07-30T11:19:56.507Z,36.24
2022-07-30T11:20:48.698Z,35.96
2022-07-30T11:21:47.867Z,36.44
2022-07-30T11:22:51.038Z,35.66
2022-07-30T11:23:47.860Z,35.86
2022-07-30T11:24:48.860Z,35.66
2022-07-30T11:25:52.053Z,35.96
2022-07-30T11:26:47.859Z,35.96
2022-07-30T11:27:48.481Z,35.96
2022-07-30T11:28:49.548Z,35.86
2022-07-30T11:29:50.894Z,35.86
2022-07-30T11:30:49.523Z,35.76
2022-07-30T11:31:56.488Z,35.86
2022-07-30T11:32:48.470Z,36.05
2022-07-30T11:33:47.863Z,35.86
2022-07-30T11:34:47.865Z,35.86
2022-07-30T11:35:47.867Z,35.86
2022-07-30T11:36:47.865Z,35.96
2022-07-30T11:37:52.350Z,35.76
2022-07-30T11:38:47.868Z,35.66
2022-07-30T11:39:47.871Z,36.24
2022-07-30T11:40:47.869Z,35.86
2022-07-30T11:41:47.871Z,35.66
2022-07-30T11:42:47.871Z,35.96
2022-07-30T11:43:47.872Z,35.47
2022-07-30T11:44:47.872Z,35.66
2022-07-30T11:45:47.873Z,35.57
2022-07-30T11:46:47.875Z,35.57
2022-07-30T11:47:47.877Z,35.27
2022-07-30T11:48:47.923Z,35.76
2022-07-30T11:49:47.875Z,35.57
2022-07-30T11:50:47.877Z,35.08
2022-07-30T11:51:47.881Z,34.98
2022-07-30T11:52:47.876Z,35.08
2022-07-30T11:53:47.880Z,35.27
2022-07-30T11:54:47.880Z,35.47
2022-07-30T11:55:47.882Z,35.17
2022-07-30T11:56:47.881Z,35.08
2022-07-30T11:57:47.883Z,35.17
2022-07-30T11:58:47.884Z,35.17
2022-07-30T11:59:47.883Z,35.27
2022-07-30T12:00:47.916Z,35.27
2022-07-30T12:01:47.885Z,34.98
2022-07-30T12:02:47.884Z,34.79
2022-07-30T12:03:47.887Z,34.98
2022-07-30T12:04:47.888Z,34.98
2022-07-30T12:05:52.531Z,34.88
2022-07-30T12:06:47.887Z,34.98
2022-07-30T12:07:47.891Z,34.79
2022-07-30T12:08:47.889Z,34.88
2022-07-30T12:09:47.893Z,35.08
2022-07-30T12:10:47.891Z,34.98
2022-07-30T12:11:47.892Z,34.88
2022-07-30T12:12:47.891Z,34.88
2022-07-30T12:13:47.895Z,34.98
2022-07-30T12:14:47.894Z,35.08
2022-07-30T12:15:47.899Z,34.98
2022-07-30T12:16:47.894Z,34.88
2022-07-30T12:17:47.897Z,34.98
2022-07-30T12:18:47.902Z,34.50
2022-07-30T12:19:48.657Z,35.08
2022-07-30T12:20:47.897Z,34.79
2022-07-30T12:21:52.777Z,34.69
2022-07-30T12:22:47.901Z,34.88
2022-07-30T12:23:47.903Z,34.79
2022-07-30T12:24:47.902Z,34.79
2022-07-30T12:25:51.752Z,34.69
2022-07-30T12:26:47.902Z,34.50
2022-07-30T12:27:51.826Z,34.50
2022-07-30T12:28:47.904Z,34.50
2022-07-30T12:29:47.909Z,34.59
2022-07-30T12:30:47.907Z,34.30
2022-07-30T12:31:47.910Z,34.40
2022-07-30T12:32:47.907Z,34.20
2022-07-30T12:33:47.910Z,34.01
2022-07-30T12:34:47.909Z,34.20
2022-07-30T12:35:47.915Z,34.11
2022-07-30T12:36:47.911Z,34.01
2022-07-30T12:37:47.912Z,33.81
2022-07-30T12:38:47.914Z,34.11
2022-07-30T12:39:47.915Z,34.20
2022-07-30T12:40:47.912Z,34.30
2022-07-30T12:41:47.916Z,34.30
2022-07-30T12:42:47.914Z,34.11
2022-07-30T12:43:47.918Z,34.40
2022-07-30T12:44:47.916Z,33.81
2022-07-30T12:45:51.512Z,33.81
2022-07-30T12:46:47.920Z,34.20
2022-07-30T12:47:47.920Z,34.01
2022-07-30T12:48:47.975Z,33.81
2022-07-30T12:49:49.584Z,33.81
2022-07-30T12:50:47.922Z,33.91
2022-07-30T12:51:48.173Z,34.01
2022-07-30T12:52:47.925Z,33.91